Eutawville, South Carolina
Current Conditions -  °F | °C
As of 7:55 PM on Monday 24 Nov 2014 (Local Time) from KDYB Reporting Station
Overcast Overcast  
Wind Chill: 64°   Ceiling: 10000
Heat Index: 64°   Visibility: 10mi
Dew Point: 64°   Wind: 5mph
Humidity: 100%   Direction: 200°SSW
Pressure: 29.96"   Gusts: NA
Location:  33.39°N, 80.35°W
Report Text: KDYB 250055Z AUTO 20004KT 10SM BKN100 OVC120 18/18 A2996 RMK AO1 LTG DSNT S AND SW
Loading
Personal Weather Stations






























Interactive Weather Map New forecast layout! Learn more

10-Day Weather Forecast

Advertisements
Track Severe Weather on mobile